createdAt,value
2022-09-22T00:00:10.802Z,24.29
2022-09-22T00:00:42.849Z,24.31
2022-09-22T00:01:15.253Z,24.29
2022-09-22T00:01:46.971Z,24.28
2022-09-22T00:02:18.483Z,24.28
2022-09-22T00:02:50.081Z,24.31
2022-09-22T00:03:21.580Z,24.31
2022-09-22T00:03:54.290Z,24.33
2022-09-22T00:04:25.831Z,24.34
2022-09-22T00:04:57.328Z,24.31
2022-09-22T00:05:28.714Z,24.30
2022-09-22T00:06:01.017Z,24.26
2022-09-22T00:06:48.145Z,24.27
2022-09-22T00:07:19.574Z,24.28
2022-09-22T00:07:51.435Z,24.29
2022-09-22T00:08:22.942Z,24.16
2022-09-22T00:08:55.317Z,24.22
2022-09-22T00:09:26.776Z,24.17
2022-09-22T00:09:58.334Z,24.13
2022-09-22T00:10:29.739Z,24.08
2022-09-22T00:11:08.678Z,23.99
2022-09-22T00:11:41.163Z,24.04
2022-09-22T00:12:12.664Z,24.03
2022-09-22T00:12:44.117Z,24.05
2022-09-22T00:13:15.659Z,24.04
2022-09-22T00:13:51.960Z,24.12
2022-09-22T00:14:24.466Z,24.14
2022-09-22T00:14:56.058Z,24.15
2022-09-22T00:15:27.625Z,24.15
2022-09-22T00:15:59.576Z,24.15
2022-09-22T00:16:33.632Z,24.19
2022-09-22T00:17:05.241Z,24.17
2022-09-22T00:17:36.737Z,24.17
2022-09-22T00:18:08.140Z,24.16
2022-09-22T00:18:39.923Z,24.16
2022-09-22T00:19:14.981Z,24.18
2022-09-22T00:19:46.485Z,24.16
2022-09-22T00:20:17.947Z,24.14
2022-09-22T00:20:49.328Z,24.15
2022-09-22T00:21:21.310Z,24.12
2022-09-22T00:21:52.727Z,24.11
2022-09-22T00:22:24.251Z,24.14
2022-09-22T00:22:55.656Z,24.14
2022-09-22T00:23:27.137Z,24.15
2022-09-22T00:24:00.706Z,24.13
2022-09-22T00:24:32.324Z,24.13
2022-09-22T00:25:03.928Z,24.14
2022-09-22T00:25:38.973Z,24.13
2022-09-22T00:26:11.217Z,24.09
2022-09-22T00:26:42.754Z,24.05
2022-09-22T00:27:14.283Z,24.06
2022-09-22T00:27:45.739Z,24.10
2022-09-22T00:28:17.107Z,24.09
2022-09-22T00:28:48.780Z,24.08
2022-09-22T00:29:20.335Z,24.10
2022-09-22T00:29:51.883Z,24.09
2022-09-22T00:30:23.342Z,24.11
2022-09-22T00:30:54.825Z,24.07
2022-09-22T00:31:26.427Z,24.03
2022-09-22T00:31:57.964Z,24.07
2022-09-22T00:32:29.534Z,24.09
2022-09-22T00:33:00.970Z,24.08
2022-09-22T00:33:32.569Z,24.05
2022-09-22T00:34:04.009Z,24.00
2022-09-22T00:34:35.542Z,23.99
2022-09-22T00:35:07.533Z,24.01
2022-09-22T00:35:39.035Z,24.02
2022-09-22T00:36:10.602Z,24.02
2022-09-22T00:36:42.090Z,24.03
2022-09-22T00:37:13.679Z,24.00
2022-09-22T00:37:45.087Z,24.01
2022-09-22T00:38:16.484Z,23.98
2022-09-22T00:38:47.883Z,24.01
2022-09-22T00:39:19.416Z,24.01
2022-09-22T00:39:50.931Z,23.98
2022-09-22T00:40:22.412Z,23.99
2022-09-22T00:40:53.923Z,24.02
2022-09-22T00:41:26.653Z,24.03
2022-09-22T00:41:58.118Z,24.04
2022-09-22T00:42:29.622Z,24.01
2022-09-22T00:43:17.045Z,24.03
2022-09-22T00:43:49.460Z,24.01
2022-09-22T00:44:26.915Z,23.98
2022-09-22T00:44:58.413Z,24.00
2022-09-22T00:45:29.851Z,24.00
2022-09-22T00:46:12.739Z,23.98
2022-09-22T00:46:45.144Z,23.98
2022-09-22T00:47:19.568Z,23.97
2022-09-22T00:47:51.112Z,23.99
2022-09-22T00:48:23.106Z,23.98
2022-09-22T00:48:58.015Z,23.99
2022-09-22T00:49:39.415Z,24.00
2022-09-22T00:50:21.176Z,23.96
2022-09-22T00:50:53.191Z,23.98
2022-09-22T00:51:25.484Z,23.94
2022-09-22T00:51:57.102Z,23.94
2022-09-22T00:52:30.337Z,23.93
2022-09-22T00:53:03.088Z,23.91
2022-09-22T00:53:34.608Z,23.90
2022-09-22T00:54:06.861Z,23.92
2022-09-22T00:54:38.798Z,23.90
2022-09-22T00:55:19.227Z,23.87
2022-09-22T00:56:01.412Z,23.86
2022-09-22T00:56:35.290Z,23.90
2022-09-22T00:57:08.327Z,23.88
2022-09-22T00:57:39.968Z,23.84
2022-09-22T00:58:13.085Z,23.86
2022-09-22T00:58:45.770Z,23.86
2022-09-22T00:59:17.691Z,23.88
2022-09-22T00:59:49.339Z,23.88
2022-09-22T01:00:20.926Z,23.85
2022-09-22T01:00:52.582Z,23.87
2022-09-22T01:01:24.215Z,23.87
2022-09-22T01:01:55.772Z,23.83
2022-09-22T01:02:27.297Z,23.85
2022-09-22T01:02:59.187Z,23.81
2022-09-22T01:03:30.712Z,23.85
2022-09-22T01:04:02.830Z,23.86
2022-09-22T01:04:34.375Z,23.88
2022-09-22T01:05:06.136Z,23.86
2022-09-22T01:05:37.574Z,23.83
2022-09-22T01:06:09.947Z,23.81
2022-09-22T01:06:41.528Z,23.84
2022-09-22T01:07:12.984Z,23.85
2022-09-22T01:07:44.478Z,23.86
2022-09-22T01:08:15.955Z,23.83
2022-09-22T01:08:47.531Z,23.85
2022-09-22T01:09:18.883Z,23.86
2022-09-22T01:09:50.386Z,23.86
2022-09-22T01:10:21.896Z,23.87
2022-09-22T01:10:53.634Z,23.83
2022-09-22T01:11:25.158Z,23.86
2022-09-22T01:11:56.680Z,23.86
2022-09-22T01:12:28.161Z,23.84
2022-09-22T01:13:07.764Z,23.84
2022-09-22T01:13:49.712Z,23.86
2022-09-22T01:14:59.576Z,23.84
2022-09-22T01:15:31.036Z,23.87
2022-09-22T01:16:10.200Z,23.86
2022-09-22T01:16:47.324Z,23.86
2022-09-22T01:17:27.706Z,23.84
2022-09-22T01:18:06.333Z,23.83
2022-09-22T01:18:40.487Z,23.82
2022-09-22T01:19:14.731Z,23.82
2022-09-22T01:20:06.473Z,23.80
2022-09-22T01:20:46.804Z,23.83
2022-09-22T01:21:27.210Z,23.80
2022-09-22T01:22:04.650Z,23.80
2022-09-22T01:22:36.138Z,23.79
2022-09-22T01:23:07.620Z,23.81
2022-09-22T01:23:38.984Z,23.80
2022-09-22T01:24:29.176Z,23.80
2022-09-22T01:25:00.610Z,23.79
2022-09-22T01:25:50.779Z,23.80
2022-09-22T01:26:25.398Z,23.81
2022-09-22T01:27:05.778Z,23.83
2022-09-22T01:27:37.194Z,23.82
2022-09-22T01:28:08.544Z,23.82
2022-09-22T01:29:09.241Z,23.82
2022-09-22T01:30:12.852Z,23.84
2022-09-22T01:31:04.579Z,23.84
2022-09-22T01:31:42.244Z,23.84
2022-09-22T01:32:25.474Z,23.83
2022-09-22T01:33:11.420Z,23.86
2022-09-22T01:33:50.092Z,23.84
2022-09-22T01:34:27.161Z,23.83
2022-09-22T01:35:00.068Z,23.84
2022-09-22T01:35:32.449Z,23.84
2022-09-22T01:36:09.445Z,23.86
2022-09-22T01:36:46.657Z,23.85
2022-09-22T01:37:23.061Z,23.82
2022-09-22T01:38:00.651Z,23.80
2022-09-22T01:38:34.139Z,23.80
2022-09-22T01:39:16.576Z,23.81
2022-09-22T01:40:01.845Z,23.82
2022-09-22T01:40:33.590Z,23.82
2022-09-22T01:41:08.654Z,23.80
2022-09-22T01:41:45.892Z,23.83
2022-09-22T01:42:18.887Z,23.82
2022-09-22T01:42:51.850Z,23.82
2022-09-22T01:43:34.359Z,23.77
2022-09-22T01:44:10.766Z,23.79
2022-09-22T01:45:01.663Z,23.83
2022-09-22T01:45:33.135Z,23.79
2022-09-22T01:46:18.226Z,23.78
2022-09-22T01:46:52.634Z,23.79
2022-09-22T01:47:24.837Z,23.82
2022-09-22T01:47:57.571Z,23.82
2022-09-22T01:48:32.518Z,23.79
2022-09-22T01:49:05.485Z,23.76
2022-09-22T01:49:37.832Z,23.76
2022-09-22T01:50:10.766Z,23.77
2022-09-22T01:50:43.171Z,23.77
2022-09-22T01:51:30.766Z,23.76
2022-09-22T01:52:03.721Z,23.75
2022-09-22T01:52:35.211Z,23.72
2022-09-22T01:53:10.412Z,23.73
2022-09-22T01:53:43.481Z,23.77
2022-09-22T01:54:16.122Z,23.77
2022-09-22T01:54:50.587Z,23.78
2022-09-22T01:55:25.915Z,23.77
2022-09-22T01:55:57.979Z,23.72
2022-09-22T01:56:29.490Z,23.74
2022-09-22T01:57:04.582Z,23.74
2022-09-22T01:57:45.349Z,23.75
2022-09-22T01:58:17.394Z,23.75
2022-09-22T01:58:50.346Z,23.75
2022-09-22T01:59:22.658Z,23.72
2022-09-22T01:59:55.238Z,23.72
2022-09-22T02:00:26.694Z,23.73
2022-09-22T02:01:13.670Z,23.76
2022-09-22T02:01:48.768Z,23.75
2022-09-22T02:02:24.173Z,23.76
2022-09-22T02:02:59.507Z,23.73
2022-09-22T02:03:44.662Z,23.75
2022-09-22T02:04:26.382Z,23.75
2022-09-22T02:04:58.400Z,23.74
2022-09-22T02:05:31.003Z,23.74
2022-09-22T02:06:09.990Z,23.77
2022-09-22T02:06:45.900Z,23.74
2022-09-22T02:07:27.981Z,23.73
2022-09-22T02:08:00.143Z,23.75
2022-09-22T02:08:47.870Z,23.74
2022-09-22T02:09:19.923Z,23.73
2022-09-22T02:09:51.486Z,23.71
2022-09-22T02:10:24.794Z,23.70
2022-09-22T02:10:56.220Z,23.71
2022-09-22T02:11:27.654Z,23.72
2022-09-22T02:11:59.233Z,23.71
2022-09-22T02:12:30.757Z,23.68
2022-09-22T02:13:02.368Z,23.67
2022-09-22T02:13:33.918Z,23.67
2022-09-22T02:14:05.387Z,23.69
2022-09-22T02:14:36.895Z,23.73
2022-09-22T02:15:08.695Z,23.70
2022-09-22T02:15:40.295Z,23.73
2022-09-22T02:16:12.770Z,23.75
2022-09-22T02:16:44.441Z,23.72
2022-09-22T02:17:16.041Z,23.72
2022-09-22T02:17:47.628Z,23.68
2022-09-22T02:18:20.307Z,23.72
2022-09-22T02:18:53.373Z,23.73
2022-09-22T02:19:28.761Z,23.73
2022-09-22T02:20:00.283Z,23.74
2022-09-22T02:20:32.529Z,23.75
2022-09-22T02:21:04.103Z,23.74
2022-09-22T02:21:35.638Z,23.72
2022-09-22T02:22:07.432Z,23.73
2022-09-22T02:22:38.847Z,23.72
2022-09-22T02:23:10.326Z,23.72
2022-09-22T02:23:42.087Z,23.71
2022-09-22T02:24:31.950Z,23.74
2022-09-22T02:25:03.675Z,23.75
2022-09-22T02:25:35.952Z,23.75
2022-09-22T02:26:07.544Z,23.72
2022-09-22T02:26:39.035Z,23.72
2022-09-22T02:27:10.481Z,23.74
2022-09-22T02:27:41.892Z,23.72
2022-09-22T02:28:14.034Z,23.71
2022-09-22T02:28:45.524Z,23.71
2022-09-22T02:29:17.043Z,23.71
2022-09-22T02:29:49.912Z,23.67
2022-09-22T02:30:21.457Z,23.67
2022-09-22T02:31:17.459Z,23.68
2022-09-22T02:31:44.673Z,23.71
2022-09-22T02:32:16.597Z,23.72
2022-09-22T02:32:48.524Z,23.68
2022-09-22T02:33:20.005Z,23.72
2022-09-22T02:33:51.573Z,23.73
2022-09-22T02:34:23.159Z,23.73
2022-09-22T02:34:54.821Z,23.72
2022-09-22T02:35:26.555Z,23.70
2022-09-22T02:36:00.666Z,23.71
2022-09-22T02:36:32.147Z,23.70
2022-09-22T02:37:23.906Z,23.71
2022-09-22T02:37:55.297Z,23.71
2022-09-22T02:38:30.869Z,23.71
2022-09-22T02:39:09.785Z,23.68
2022-09-22T02:39:49.907Z,23.68
2022-09-22T02:40:31.553Z,23.68
2022-09-22T02:41:08.849Z,23.67
2022-09-22T02:41:52.112Z,23.69
2022-09-22T02:42:25.252Z,23.66
2022-09-22T02:43:00.895Z,23.67
2022-09-22T02:43:33.791Z,23.70
2022-09-22T02:44:25.581Z,23.71
2022-09-22T02:45:11.211Z,23.70
2022-09-22T02:45:45.389Z,23.70
2022-09-22T02:46:49.212Z,23.72
2022-09-22T02:47:34.138Z,23.67
2022-09-22T02:48:24.669Z,23.68
2022-09-22T02:48:56.594Z,23.69
2022-09-22T02:49:28.042Z,23.68
2022-09-22T02:50:00.222Z,23.71
2022-09-22T02:50:31.802Z,23.71
2022-09-22T02:51:03.334Z,23.71
2022-09-22T02:51:34.816Z,23.71
2022-09-22T02:52:10.710Z,23.70
2022-09-22T02:52:42.253Z,23.71
2022-09-22T02:53:14.640Z,23.74
2022-09-22T02:53:46.075Z,23.68
2022-09-22T02:54:17.493Z,23.68
2022-09-22T02:54:49.079Z,23.66
2022-09-22T02:55:20.538Z,23.67
2022-09-22T02:55:52.005Z,23.70
2022-09-22T02:56:23.524Z,23.69
2022-09-22T02:56:55.098Z,23.71
2022-09-22T02:57:26.726Z,23.69
2022-09-22T02:57:58.271Z,23.64
2022-09-22T02:58:29.681Z,23.65
2022-09-22T02:59:01.151Z,23.66
2022-09-22T02:59:32.666Z,23.68
2022-09-22T03:00:04.791Z,23.68
2022-09-22T03:00:36.376Z,23.66
2022-09-22T03:01:07.888Z,23.68
2022-09-22T03:01:39.384Z,23.68
2022-09-22T03:02:10.824Z,23.66
2022-09-22T03:02:42.325Z,23.66
2022-09-22T03:03:13.807Z,23.67
2022-09-22T03:03:45.297Z,23.67
2022-09-22T03:04:16.818Z,23.66
2022-09-22T03:04:48.429Z,23.68
2022-09-22T03:05:19.875Z,23.66
2022-09-22T03:05:51.341Z,23.68
2022-09-22T03:06:22.694Z,23.69
2022-09-22T03:06:54.144Z,23.70
2022-09-22T03:07:25.663Z,23.67
2022-09-22T03:07:57.245Z,23.65
2022-09-22T03:08:28.734Z,23.65
2022-09-22T03:09:00.196Z,23.67
2022-09-22T03:09:31.624Z,23.66
2022-09-22T03:10:03.173Z,23.64
2022-09-22T03:10:34.605Z,23.64
2022-09-22T03:11:06.039Z,23.65
2022-09-22T03:11:37.457Z,23.65
2022-09-22T03:12:08.855Z,23.70
2022-09-22T03:12:51.854Z,23.68
2022-09-22T03:13:31.854Z,23.67
2022-09-22T03:14:03.335Z,23.68
2022-09-22T03:14:34.891Z,23.69
2022-09-22T03:15:06.747Z,23.67
2022-09-22T03:15:38.316Z,23.66
2022-09-22T03:16:09.918Z,23.66
2022-09-22T03:16:41.365Z,23.66
2022-09-22T03:17:12.779Z,23.66
2022-09-22T03:17:44.242Z,23.65
2022-09-22T03:18:15.720Z,23.64
2022-09-22T03:18:47.170Z,23.64
2022-09-22T03:19:18.586Z,23.63
2022-09-22T03:19:50.065Z,23.66
2022-09-22T03:20:21.547Z,23.66
2022-09-22T03:20:53.031Z,23.67
2022-09-22T03:21:24.535Z,23.66
2022-09-22T03:21:55.975Z,23.66
2022-09-22T03:22:27.454Z,23.68
2022-09-22T03:22:58.991Z,23.67
2022-09-22T03:23:30.524Z,23.67
2022-09-22T03:24:02.084Z,23.67
2022-09-22T03:24:33.500Z,23.69
2022-09-22T03:25:05.938Z,23.68
2022-09-22T03:25:37.461Z,23.67
2022-09-22T03:26:08.932Z,23.67
2022-09-22T03:26:40.430Z,23.70
2022-09-22T03:27:11.849Z,23.68
2022-09-22T03:27:43.277Z,23.67
2022-09-22T03:28:14.668Z,23.67
2022-09-22T03:28:46.099Z,23.65
2022-09-22T03:29:17.508Z,23.67
2022-09-22T03:29:48.947Z,23.67
2022-09-22T03:30:20.389Z,23.66
2022-09-22T03:30:51.893Z,23.66
2022-09-22T03:31:23.397Z,23.66
2022-09-22T03:31:54.947Z,23.67
2022-09-22T03:32:26.362Z,23.65
2022-09-22T03:32:57.747Z,23.66
2022-09-22T03:33:29.397Z,23.66
2022-09-22T03:34:00.858Z,23.65
2022-09-22T03:34:32.383Z,23.65
2022-09-22T03:35:04.120Z,23.65
2022-09-22T03:35:35.545Z,23.65
2022-09-22T03:36:06.999Z,23.63
2022-09-22T03:36:38.478Z,23.65
2022-09-22T03:37:09.901Z,23.65
2022-09-22T03:37:41.518Z,23.64
2022-09-22T03:38:12.966Z,23.64
2022-09-22T03:38:44.513Z,23.65
2022-09-22T03:39:15.971Z,23.63
2022-09-22T03:39:47.501Z,23.63
2022-09-22T03:40:19.059Z,23.67
2022-09-22T03:40:51.080Z,23.65
2022-09-22T03:41:22.646Z,23.63
2022-09-22T03:41:54.112Z,23.60
2022-09-22T03:42:25.590Z,23.62
2022-09-22T03:42:57.083Z,23.61
2022-09-22T03:43:28.519Z,23.60
2022-09-22T03:43:59.981Z,23.62
2022-09-22T03:44:31.487Z,23.62
2022-09-22T03:45:03.194Z,23.63
2022-09-22T03:45:34.723Z,23.64
2022-09-22T03:46:06.377Z,23.63
2022-09-22T03:46:37.843Z,23.64
2022-09-22T03:47:09.293Z,23.61
2022-09-22T03:47:40.859Z,23.64
2022-09-22T03:48:12.271Z,23.64
2022-09-22T03:48:45.285Z,23.65
2022-09-22T03:49:16.965Z,23.65
2022-09-22T03:49:48.358Z,23.65
2022-09-22T03:50:19.936Z,23.66
2022-09-22T03:50:51.389Z,23.63
2022-09-22T03:51:22.788Z,23.64
2022-09-22T03:51:54.388Z,23.64
2022-09-22T03:52:25.801Z,23.66
2022-09-22T03:52:57.403Z,23.66
2022-09-22T03:53:28.844Z,23.66
2022-09-22T03:54:00.607Z,23.66
2022-09-22T03:54:32.266Z,23.67
2022-09-22T03:55:03.878Z,23.67
2022-09-22T03:55:35.300Z,23.66
2022-09-22T03:56:10.419Z,23.66
2022-09-22T03:56:41.873Z,23.67
2022-09-22T03:57:13.387Z,23.65
2022-09-22T03:57:44.868Z,23.66
2022-09-22T03:58:16.438Z,23.66
2022-09-22T03:58:47.852Z,23.65
2022-09-22T03:59:19.298Z,23.66
2022-09-22T03:59:50.757Z,23.65
2022-09-22T04:00:22.217Z,23.64
2022-09-22T04:00:53.700Z,23.66
2022-09-22T04:01:25.370Z,23.67
2022-09-22T04:01:58.347Z,23.57
2022-09-22T04:02:30.102Z,23.56
2022-09-22T04:03:01.721Z,23.53
2022-09-22T04:03:33.396Z,23.49
2022-09-22T04:04:05.022Z,23.52
2022-09-22T04:04:36.422Z,23.50
2022-09-22T04:05:08.133Z,23.46
2022-09-22T04:05:39.801Z,23.44
2022-09-22T04:06:11.277Z,23.43
2022-09-22T04:06:42.893Z,23.46
2022-09-22T04:07:14.409Z,23.46
2022-09-22T04:07:45.898Z,23.47
2022-09-22T04:08:17.741Z,23.48
2022-09-22T04:08:49.223Z,23.41
2022-09-22T04:09:20.674Z,23.44
2022-09-22T04:09:52.245Z,23.48
2022-09-22T04:10:23.646Z,23.51
2022-09-22T04:10:55.171Z,23.54
2022-09-22T04:11:26.829Z,23.56
2022-09-22T04:11:58.369Z,23.51
2022-09-22T04:12:30.042Z,23.53
2022-09-22T04:13:01.521Z,23.52
2022-09-22T04:13:33.122Z,23.52
2022-09-22T04:14:04.570Z,23.54
2022-09-22T04:14:36.355Z,23.55
2022-09-22T04:15:08.211Z,23.56
2022-09-22T04:15:39.644Z,23.57
2022-09-22T04:16:11.135Z,23.53
2022-09-22T04:16:42.741Z,23.56
2022-09-22T04:17:14.260Z,23.57
2022-09-22T04:17:45.682Z,23.59
2022-09-22T04:18:17.345Z,23.58
2022-09-22T04:18:48.775Z,23.58
2022-09-22T04:19:20.212Z,23.54
2022-09-22T04:19:51.667Z,23.55
2022-09-22T04:20:23.072Z,23.58
2022-09-22T04:20:57.693Z,23.58
2022-09-22T04:21:29.128Z,23.58
2022-09-22T04:22:00.687Z,23.59
2022-09-22T04:22:32.113Z,23.60
2022-09-22T04:23:03.772Z,23.58
2022-09-22T04:23:35.357Z,23.60
2022-09-22T04:24:06.996Z,23.61
2022-09-22T04:24:38.468Z,23.60
2022-09-22T04:25:09.900Z,23.62
2022-09-22T04:25:41.421Z,23.61
2022-09-22T04:26:12.868Z,23.60
2022-09-22T04:27:01.905Z,23.62
2022-09-22T04:27:35.788Z,23.61
2022-09-22T04:28:07.377Z,23.60
2022-09-22T04:28:38.956Z,23.58
2022-09-22T04:29:10.363Z,23.60
2022-09-22T04:29:41.783Z,23.60
2022-09-22T04:30:13.229Z,23.61
2022-09-22T04:30:44.832Z,23.61
2022-09-22T04:31:16.360Z,23.61
2022-09-22T04:31:47.801Z,23.61
2022-09-22T04:32:19.320Z,23.61
2022-09-22T04:32:50.844Z,23.62
2022-09-22T04:33:22.390Z,23.61
2022-09-22T04:33:53.933Z,23.64
2022-09-22T04:34:25.407Z,23.62
2022-09-22T04:34:56.926Z,23.61
2022-09-22T04:35:28.413Z,23.60
2022-09-22T04:35:59.812Z,23.57
2022-09-22T04:36:31.316Z,23.58
2022-09-22T04:37:02.778Z,23.58
2022-09-22T04:37:34.319Z,23.58
2022-09-22T04:38:05.785Z,23.61
2022-09-22T04:38:37.317Z,23.61
2022-09-22T04:39:08.810Z,23.60
2022-09-22T04:39:40.233Z,23.59
2022-09-22T04:40:11.817Z,23.61
2022-09-22T04:40:43.494Z,23.60
2022-09-22T04:41:15.055Z,23.61
2022-09-22T04:41:46.621Z,23.61
2022-09-22T04:42:18.142Z,23.58
2022-09-22T04:42:49.705Z,23.58
2022-09-22T04:43:21.262Z,23.59
2022-09-22T04:43:52.803Z,23.58
2022-09-22T04:44:24.258Z,23.56
2022-09-22T04:44:55.787Z,23.57
2022-09-22T04:45:27.253Z,23.57
2022-09-22T04:45:58.821Z,23.60
2022-09-22T04:46:30.388Z,23.61
2022-09-22T04:47:02.224Z,23.61
2022-09-22T04:47:33.720Z,23.57
2022-09-22T04:48:05.229Z,23.60
2022-09-22T04:48:36.751Z,23.60
2022-09-22T04:49:08.192Z,23.60
2022-09-22T04:49:39.667Z,23.61
2022-09-22T04:50:11.092Z,23.61
2022-09-22T04:50:47.835Z,23.58
2022-09-22T04:51:19.841Z,23.58
2022-09-22T04:51:51.414Z,23.59
2022-09-22T04:52:22.970Z,23.61
2022-09-22T04:52:54.942Z,23.58
2022-09-22T04:53:26.397Z,23.60
2022-09-22T04:53:57.991Z,23.60
2022-09-22T04:54:29.531Z,23.60
2022-09-22T04:55:00.994Z,23.59
2022-09-22T04:55:32.470Z,23.58
2022-09-22T04:56:03.893Z,23.58
2022-09-22T04:56:35.429Z,23.60
2022-09-22T04:57:06.874Z,23.58
2022-09-22T04:57:38.360Z,23.60
2022-09-22T04:58:09.941Z,23.60
2022-09-22T04:58:41.530Z,23.60
2022-09-22T04:59:13.106Z,23.60
2022-09-22T04:59:44.624Z,23.62
2022-09-22T05:00:16.306Z,23.61
2022-09-22T05:00:47.739Z,23.59
2022-09-22T05:01:19.217Z,23.60
2022-09-22T05:01:50.765Z,23.60
2022-09-22T05:02:22.310Z,23.60
2022-09-22T05:02:53.858Z,23.60
2022-09-22T05:03:25.426Z,23.60
2022-09-22T05:03:56.854Z,23.61
2022-09-22T05:04:28.362Z,23.61
2022-09-22T05:04:59.856Z,23.60
2022-09-22T05:05:31.266Z,23.62
2022-09-22T05:06:02.773Z,23.59
2022-09-22T05:06:34.231Z,23.59
2022-09-22T05:07:05.732Z,23.58
2022-09-22T05:07:40.161Z,23.57
2022-09-22T05:08:11.610Z,23.57
2022-09-22T05:08:43.181Z,23.58
2022-09-22T05:09:14.599Z,23.60
2022-09-22T05:09:46.044Z,23.59
2022-09-22T05:10:17.575Z,23.60
2022-09-22T05:10:49.183Z,23.60
2022-09-22T05:11:20.614Z,23.60
2022-09-22T05:11:52.160Z,23.61
2022-09-22T05:12:23.672Z,23.61
2022-09-22T05:12:55.256Z,23.59
2022-09-22T05:13:26.842Z,23.61
2022-09-22T05:13:58.396Z,23.60
2022-09-22T05:14:29.757Z,23.61
2022-09-22T05:15:01.208Z,23.64
2022-09-22T05:15:32.649Z,23.61
2022-09-22T05:16:04.398Z,23.62
2022-09-22T05:16:35.920Z,23.60
2022-09-22T05:17:07.510Z,23.60
2022-09-22T05:17:44.660Z,23.57
2022-09-22T05:18:16.185Z,23.58
2022-09-22T05:18:47.770Z,23.60
2022-09-22T05:19:19.272Z,23.57
2022-09-22T05:19:50.771Z,23.60
2022-09-22T05:20:22.275Z,23.60
2022-09-22T05:20:53.889Z,23.56
2022-09-22T05:21:25.563Z,23.58
2022-09-22T05:21:57.129Z,23.57
2022-09-22T05:22:28.864Z,23.56
2022-09-22T05:23:00.400Z,23.59
2022-09-22T05:23:32.076Z,23.60
2022-09-22T05:24:04.259Z,23.60
2022-09-22T05:24:35.696Z,23.60
2022-09-22T05:25:08.045Z,23.60
2022-09-22T05:25:39.432Z,23.57
2022-09-22T05:26:11.082Z,23.56
2022-09-22T05:26:42.477Z,23.57
2022-09-22T05:27:13.960Z,23.58
2022-09-22T05:27:53.859Z,23.59
2022-09-22T05:28:25.371Z,23.59
2022-09-22T05:28:57.172Z,23.60
2022-09-22T05:29:28.624Z,23.58
2022-09-22T05:30:00.058Z,23.58
2022-09-22T05:30:31.481Z,23.56
2022-09-22T05:31:03.010Z,23.57
2022-09-22T05:31:34.458Z,23.56
2022-09-22T05:32:06.009Z,23.58
2022-09-22T05:32:37.469Z,23.60
2022-09-22T05:33:08.884Z,23.58
2022-09-22T05:33:40.304Z,23.59
2022-09-22T05:34:12.035Z,23.57
2022-09-22T05:34:43.487Z,23.59
2022-09-22T05:35:15.838Z,23.60
2022-09-22T05:35:47.265Z,23.56
2022-09-22T05:36:18.706Z,23.56
2022-09-22T05:36:50.158Z,23.58
2022-09-22T05:37:21.700Z,23.60
2022-09-22T05:37:53.209Z,23.58
2022-09-22T05:38:24.709Z,23.58
2022-09-22T05:38:56.152Z,23.58
2022-09-22T05:39:27.550Z,23.60
2022-09-22T05:39:59.063Z,23.56
2022-09-22T05:40:30.606Z,23.57
2022-09-22T05:41:02.061Z,23.58
2022-09-22T05:41:33.487Z,23.58
2022-09-22T05:42:10.233Z,23.57
2022-09-22T05:42:48.908Z,23.58
2022-09-22T05:43:20.388Z,23.60
2022-09-22T05:43:51.893Z,23.60
2022-09-22T05:44:23.460Z,23.58
2022-09-22T05:44:54.883Z,23.59
2022-09-22T05:45:26.370Z,23.57
2022-09-22T05:45:57.971Z,23.58
2022-09-22T05:46:29.491Z,23.59
2022-09-22T05:47:00.921Z,23.60
2022-09-22T05:47:33.548Z,23.59
2022-09-22T05:48:04.963Z,23.57
2022-09-22T05:48:36.420Z,23.59
2022-09-22T05:49:07.872Z,23.57
2022-09-22T05:49:39.323Z,23.59
2022-09-22T05:50:11.393Z,23.56
2022-09-22T05:50:43.507Z,23.56
2022-09-22T05:51:14.969Z,23.55
2022-09-22T05:51:46.492Z,23.56
2022-09-22T05:52:17.847Z,23.55
2022-09-22T05:52:49.482Z,23.55
2022-09-22T05:53:20.907Z,23.56
2022-09-22T05:53:52.597Z,23.56
2022-09-22T05:54:24.002Z,23.56
2022-09-22T05:54:55.481Z,23.54
2022-09-22T05:55:27.050Z,23.58
2022-09-22T05:55:58.461Z,23.57
2022-09-22T05:56:30.767Z,23.56
2022-09-22T05:57:02.210Z,23.56
2022-09-22T05:57:33.778Z,23.56
2022-09-22T05:58:05.260Z,23.55
2022-09-22T05:58:36.753Z,23.54
2022-09-22T05:59:08.263Z,23.53
2022-09-22T05:59:39.738Z,23.54
2022-09-22T06:00:11.543Z,23.53
2022-09-22T06:00:43.022Z,23.55
2022-09-22T06:01:14.550Z,23.54
2022-09-22T06:01:46.019Z,23.56
2022-09-22T06:02:25.649Z,23.52
2022-09-22T06:02:58.234Z,23.54
2022-09-22T06:03:29.807Z,23.54
2022-09-22T06:04:01.286Z,23.55
2022-09-22T06:04:32.894Z,23.57
2022-09-22T06:05:04.437Z,23.58
2022-09-22T06:05:38.510Z,23.56
2022-09-22T06:06:10.914Z,23.54
2022-09-22T06:06:42.329Z,23.54
2022-09-22T06:07:13.913Z,23.54
2022-09-22T06:07:45.506Z,23.54
2022-09-22T06:08:17.139Z,23.56
2022-09-22T06:08:49.312Z,23.53
2022-09-22T06:09:21.107Z,23.54
2022-09-22T06:09:52.604Z,23.52
2022-09-22T06:10:24.210Z,23.54
2022-09-22T06:10:55.663Z,23.55
2022-09-22T06:11:27.220Z,23.54
2022-09-22T06:11:58.665Z,23.55
2022-09-22T06:12:30.207Z,23.55
2022-09-22T06:13:02.108Z,23.56
2022-09-22T06:13:33.549Z,23.54
2022-09-22T06:14:05.200Z,23.56
2022-09-22T06:14:36.663Z,23.56
2022-09-22T06:15:08.209Z,23.55
2022-09-22T06:15:39.664Z,23.56
2022-09-22T06:16:11.152Z,23.55
2022-09-22T06:16:42.711Z,23.55
2022-09-22T06:17:14.251Z,23.55
2022-09-22T06:17:45.795Z,23.55
2022-09-22T06:18:20.755Z,23.53
2022-09-22T06:18:55.769Z,23.53
2022-09-22T06:19:27.270Z,23.56
2022-09-22T06:19:58.743Z,23.56
2022-09-22T06:20:30.160Z,23.56
2022-09-22T06:21:01.650Z,23.56
2022-09-22T06:21:33.091Z,23.56
2022-09-22T06:22:04.758Z,23.55
2022-09-22T06:22:36.213Z,23.56
2022-09-22T06:23:07.743Z,23.57
2022-09-22T06:23:42.828Z,23.57
2022-09-22T06:24:14.541Z,23.57
2022-09-22T06:24:45.989Z,23.56
2022-09-22T06:25:17.448Z,23.56
2022-09-22T06:25:49.067Z,23.58
2022-09-22T06:26:20.518Z,23.57
2022-09-22T06:26:52.031Z,23.59
2022-09-22T06:27:23.481Z,23.57
2022-09-22T06:27:58.255Z,23.54
2022-09-22T06:28:29.780Z,23.56
2022-09-22T06:29:01.215Z,23.58
2022-09-22T06:29:32.702Z,23.57
2022-09-22T06:30:04.369Z,23.58
2022-09-22T06:30:36.229Z,23.58
2022-09-22T06:31:07.620Z,23.57
2022-09-22T06:31:39.097Z,23.57
2022-09-22T06:32:10.601Z,23.56
2022-09-22T06:32:41.997Z,23.58
2022-09-22T06:33:13.419Z,23.57
2022-09-22T06:33:44.870Z,23.56
2022-09-22T06:34:16.288Z,23.54
2022-09-22T06:34:47.760Z,23.55
2022-09-22T06:35:19.236Z,23.58
2022-09-22T06:35:50.766Z,23.58
2022-09-22T06:36:22.311Z,23.58
2022-09-22T06:36:53.829Z,23.58
2022-09-22T06:37:25.256Z,23.57
2022-09-22T06:37:57.156Z,23.56
2022-09-22T06:38:28.629Z,23.58
2022-09-22T06:39:00.448Z,23.58
2022-09-22T06:39:31.959Z,23.58
2022-09-22T06:40:03.655Z,23.59
2022-09-22T06:40:35.176Z,23.59
2022-09-22T06:41:06.612Z,23.60
2022-09-22T06:41:37.988Z,23.60
2022-09-22T06:42:09.448Z,23.59
2022-09-22T06:42:40.902Z,23.60
2022-09-22T06:43:15.819Z,23.61
2022-09-22T06:43:47.228Z,23.60
2022-09-22T06:44:18.650Z,23.60
2022-09-22T06:44:50.076Z,23.60
2022-09-22T06:45:21.588Z,23.60
2022-09-22T06:45:53.161Z,23.60
2022-09-22T06:46:25.152Z,23.59
2022-09-22T06:46:56.655Z,23.61
2022-09-22T06:47:28.213Z,23.61
2022-09-22T06:47:59.949Z,23.61
2022-09-22T06:48:31.407Z,23.59
2022-09-22T06:49:02.843Z,23.60
2022-09-22T06:49:34.405Z,23.60
2022-09-22T06:50:05.913Z,23.61
2022-09-22T06:50:37.576Z,23.60
2022-09-22T06:51:11.276Z,23.59
2022-09-22T06:51:43.960Z,23.59
2022-09-22T06:52:15.433Z,23.60
2022-09-22T06:52:46.945Z,23.58
2022-09-22T06:53:18.525Z,23.60
2022-09-22T06:54:00.783Z,23.58
2022-09-22T06:54:32.254Z,23.61
2022-09-22T06:55:04.066Z,23.61
2022-09-22T06:55:35.542Z,23.62
2022-09-22T06:56:07.187Z,23.60
2022-09-22T06:56:38.597Z,23.59
2022-09-22T06:57:10.046Z,23.61
2022-09-22T06:57:41.609Z,23.58
2022-09-22T06:58:13.532Z,23.60
2022-09-22T06:59:08.123Z,23.58
2022-09-22T06:59:36.729Z,23.58
2022-09-22T07:00:08.662Z,23.60
2022-09-22T07:00:40.240Z,23.58
2022-09-22T07:01:11.974Z,23.58
2022-09-22T07:01:44.057Z,23.60
2022-09-22T07:02:15.710Z,23.61
2022-09-22T07:02:47.252Z,23.60
2022-09-22T07:03:19.375Z,23.62
2022-09-22T07:03:51.067Z,23.61
2022-09-22T07:04:22.671Z,23.58